sensor_id;sensor_type;location;lat;lon;timestamp;pressure;altitude;pressure_sealevel;temperature;humidity
58018;BME280;43810;50.860;19.226;2022-11-02T00:00:53;99001.00;;;11.04;82.16
58018;BME280;43810;50.860;19.226;2022-11-02T00:03:29;98997.34;;;10.88;82.67
58018;BME280;43810;50.860;19.226;2022-11-02T00:05:55;98996.84;;;10.95;82.54
58018;BME280;43810;50.860;19.226;2022-11-02T00:08:20;98992.34;;;10.86;82.48
58018;BME280;43810;50.860;19.226;2022-11-02T00:10:46;98987.75;;;10.75;83.23
58018;BME280;43810;50.860;19.226;2022-11-02T00:13:12;98993.59;;;10.68;83.42
58018;BME280;43810;50.860;19.226;2022-11-02T00:15:38;99004.75;;;10.62;83.62
58018;BME280;43810;50.860;19.226;2022-11-02T00:18:07;99010.75;;;10.79;83.19
58018;BME280;43810;50.860;19.226;2022-11-02T00:20:36;99001.66;;;10.80;82.83
58018;BME280;43810;50.860;19.226;2022-11-02T00:23:04;99003.72;;;10.75;83.00
58018;BME280;43810;50.860;19.226;2022-11-02T00:25:32;99003.53;;;10.80;83.00
58018;BME280;43810;50.860;19.226;2022-11-02T00:27:58;98997.34;;;10.88;82.14
58018;BME280;43810;50.860;19.226;2022-11-02T00:30:24;98996.47;;;10.84;82.39
58018;BME280;43810;50.860;19.226;2022-11-02T00:32:50;98991.78;;;10.81;82.48
58018;BME280;43810;50.860;19.226;2022-11-02T00:35:16;98996.56;;;10.87;82.13
58018;BME280;43810;50.860;19.226;2022-11-02T00:37:42;98992.75;;;10.76;82.58
58018;BME280;43810;50.860;19.226;2022-11-02T00:40:08;99004.00;;;10.61;83.05
58018;BME280;43810;50.860;19.226;2022-11-02T00:42:33;99003.53;;;10.59;83.15
58018;BME280;43810;50.860;19.226;2022-11-02T00:44:59;99001.78;;;10.63;83.29
58018;BME280;43810;50.860;19.226;2022-11-02T00:47:25;98998.69;;;10.61;83.06
58018;BME280;43810;50.860;19.226;2022-11-02T00:49:51;99000.09;;;10.59;82.92
58018;BME280;43810;50.860;19.226;2022-11-02T00:52:16;99001.00;;;10.63;83.06
58018;BME280;43810;50.860;19.226;2022-11-02T00:54:42;99004.31;;;10.60;83.27
58018;BME280;43810;50.860;19.226;2022-11-02T00:57:08;99007.28;;;10.58;83.13
58018;BME280;43810;50.860;19.226;2022-11-02T00:59:34;99005.28;;;10.55;83.06
58018;BME280;43810;50.860;19.226;2022-11-02T01:01:59;99002.47;;;10.51;83.50
58018;BME280;43810;50.860;19.226;2022-11-02T01:04:25;99006.44;;;10.45;83.46
58018;BME280;43810;50.860;19.226;2022-11-02T01:06:51;99013.97;;;10.43;83.73
58018;BME280;43810;50.860;19.226;2022-11-02T01:09:17;99005.50;;;10.41;83.64
58018;BME280;43810;50.860;19.226;2022-11-02T01:11:43;99005.06;;;10.39;83.61
58018;BME280;43810;50.860;19.226;2022-11-02T01:14:09;99000.25;;;10.33;83.65
58018;BME280;43810;50.860;19.226;2022-11-02T01:16:38;99011.84;;;10.28;84.02
58018;BME280;43810;50.860;19.226;2022-11-02T01:19:04;99007.31;;;10.29;83.93
58018;BME280;43810;50.860;19.226;2022-11-02T01:21:30;99013.78;;;10.19;84.37
58018;BME280;43810;50.860;19.226;2022-11-02T01:23:56;99003.75;;;10.16;84.48
58018;BME280;43810;50.860;19.226;2022-11-02T01:26:21;99017.03;;;10.16;84.53
58018;BME280;43810;50.860;19.226;2022-11-02T01:28:47;99012.38;;;10.13;84.72
58018;BME280;43810;50.860;19.226;2022-11-02T01:31:13;99007.72;;;10.10;84.47
58018;BME280;43810;50.860;19.226;2022-11-02T01:33:43;99013.06;;;10.01;84.68
58018;BME280;43810;50.860;19.226;2022-11-02T01:36:10;99005.09;;;9.93;85.25
58018;BME280;43810;50.860;19.226;2022-11-02T01:38:36;99008.84;;;10.00;85.25
58018;BME280;43810;50.860;19.226;2022-11-02T01:41:03;99007.34;;;9.91;85.42
58018;BME280;43810;50.860;19.226;2022-11-02T01:43:30;99005.94;;;9.85;85.80
58018;BME280;43810;50.860;19.226;2022-11-02T01:46:13;99012.81;;;9.86;85.32
58018;BME280;43810;50.860;19.226;2022-11-02T01:51:25;99011.09;;;9.81;85.59
58018;BME280;43810;50.860;19.226;2022-11-02T01:53:54;99007.56;;;9.68;86.06
58018;BME280;43810;50.860;19.226;2022-11-02T01:56:23;99020.84;;;9.68;85.81
58018;BME280;43810;50.860;19.226;2022-11-02T01:58:58;99009.91;;;9.61;85.89
58018;BME280;43810;50.860;19.226;2022-11-02T02:01:24;99013.03;;;9.63;85.59
58018;BME280;43810;50.860;19.226;2022-11-02T02:03:52;99017.28;;;9.56;85.75
58018;BME280;43810;50.860;19.226;2022-11-02T02:06:18;99022.47;;;9.43;86.11
58018;BME280;43810;50.860;19.226;2022-11-02T02:08:46;99020.72;;;9.48;86.41
58018;BME280;43810;50.860;19.226;2022-11-02T02:11:34;99023.56;;;9.51;85.88
58018;BME280;43810;50.860;19.226;2022-11-02T02:14:04;99015.41;;;9.48;86.14
58018;BME280;43810;50.860;19.226;2022-11-02T02:22:21;99023.75;;;9.29;86.97
58018;BME280;43810;50.860;19.226;2022-11-02T02:27:29;99020.78;;;9.30;86.73
58018;BME280;43810;50.860;19.226;2022-11-02T02:30:04;99022.97;;;9.28;87.04
58018;BME280;43810;50.860;19.226;2022-11-02T02:33:20;99016.72;;;9.24;87.20
58018;BME280;43810;50.860;19.226;2022-11-02T02:35:34;99031.56;;;9.25;87.04
58018;BME280;43810;50.860;19.226;2022-11-02T02:38:09;99024.84;;;9.28;87.26
58018;BME280;43810;50.860;19.226;2022-11-02T02:40:47;99025.94;;;9.27;87.05
58018;BME280;43810;50.860;19.226;2022-11-02T02:45:59;99024.25;;;9.22;86.97
58018;BME280;43810;50.860;19.226;2022-11-02T02:48:26;99025.63;;;9.20;87.04
58018;BME280;43810;50.860;19.226;2022-11-02T02:51:04;99036.25;;;9.20;86.92
58018;BME280;43810;50.860;19.226;2022-11-02T02:53:37;99038.44;;;9.00;87.83
58018;BME280;43810;50.860;19.226;2022-11-02T02:56:06;99036.56;;;9.01;87.89
58018;BME280;43810;50.860;19.226;2022-11-02T02:58:49;99030.81;;;8.99;87.89
58018;BME280;43810;50.860;19.226;2022-11-02T03:01:17;99032.66;;;9.07;87.43
58018;BME280;43810;50.860;19.226;2022-11-02T03:03:44;99035.34;;;8.98;87.65
58018;BME280;43810;50.860;19.226;2022-11-02T03:06:29;99042.53;;;8.98;87.19
58018;BME280;43810;50.860;19.226;2022-11-02T03:09:09;99037.19;;;8.89;87.53
58018;BME280;43810;50.860;19.226;2022-11-02T03:15:12;99034.22;;;8.74;87.67
58018;BME280;43810;50.860;19.226;2022-11-02T03:23:20;99045.75;;;8.69;87.85
58018;BME280;43810;50.860;19.226;2022-11-02T03:36:40;99053.72;;;8.69;87.75
58018;BME280;43810;50.860;19.226;2022-11-02T03:39:10;99059.19;;;8.64;87.90
58018;BME280;43810;50.860;19.226;2022-11-02T03:41:39;99054.00;;;8.50;87.66
58018;BME280;43810;50.860;19.226;2022-11-02T03:44:10;99056.19;;;8.48;88.18
58018;BME280;43810;50.860;19.226;2022-11-02T03:46:39;99062.88;;;8.54;87.97
58018;BME280;43810;50.860;19.226;2022-11-02T03:49:09;99055.56;;;8.51;87.78
58018;BME280;43810;50.860;19.226;2022-11-02T03:51:38;99060.22;;;8.46;87.93
58018;BME280;43810;50.860;19.226;2022-11-02T03:54:16;99064.25;;;8.34;88.13
58018;BME280;43810;50.860;19.226;2022-11-02T03:56:50;99069.06;;;8.32;88.31
58018;BME280;43810;50.860;19.226;2022-11-02T03:59:17;99070.84;;;8.46;88.07
58018;BME280;43810;50.860;19.226;2022-11-02T04:01:48;99061.00;;;8.38;88.56
58018;BME280;43810;50.860;19.226;2022-11-02T04:04:15;99055.66;;;8.29;88.79
58018;BME280;43810;50.860;19.226;2022-11-02T04:06:42;99063.91;;;8.27;89.17
58018;BME280;43810;50.860;19.226;2022-11-02T04:09:08;99076.69;;;8.25;89.21
58018;BME280;43810;50.860;19.226;2022-11-02T04:11:35;99064.38;;;8.29;88.93
58018;BME280;43810;50.860;19.226;2022-11-02T04:14:24;99073.66;;;8.41;88.66
58018;BME280;43810;50.860;19.226;2022-11-02T04:17:07;99068.97;;;8.46;88.17
58018;BME280;43810;50.860;19.226;2022-11-02T04:19:53;99063.03;;;8.41;88.32
58018;BME280;43810;50.860;19.226;2022-11-02T04:22:18;99066.00;;;8.39;88.38
58018;BME280;43810;50.860;19.226;2022-11-02T04:25:04;99075.03;;;8.38;88.40
58018;BME280;43810;50.860;19.226;2022-11-02T04:27:48;99075.16;;;8.33;88.36
58018;BME280;43810;50.860;19.226;2022-11-02T04:30:16;99087.28;;;8.25;88.57
58018;BME280;43810;50.860;19.226;2022-11-02T04:32:43;99089.81;;;8.30;88.77
58018;BME280;43810;50.860;19.226;2022-11-02T04:35:29;99088.47;;;8.42;88.18
58018;BME280;43810;50.860;19.226;2022-11-02T04:37:55;99094.09;;;8.49;88.54
58018;BME280;43810;50.860;19.226;2022-11-02T04:40:39;99089.28;;;8.51;89.16
58018;BME280;43810;50.860;19.226;2022-11-02T04:43:05;99087.41;;;8.60;89.09
58018;BME280;43810;50.860;19.226;2022-11-02T04:45:31;99089.78;;;8.79;88.71
58018;BME280;43810;50.860;19.226;2022-11-02T04:48:15;99091.81;;;8.82;88.77
58018;BME280;43810;50.860;19.226;2022-11-02T04:50:41;99088.38;;;8.81;88.39
58018;BME280;43810;50.860;19.226;2022-11-02T04:53:08;99089.66;;;8.75;88.58
58018;BME280;43810;50.860;19.226;2022-11-02T04:55:33;99080.72;;;8.71;88.47
58018;BME280;43810;50.860;19.226;2022-11-02T04:57:59;99087.91;;;8.70;88.45
58018;BME280;43810;50.860;19.226;2022-11-02T05:00:25;99096.16;;;8.69;88.23
58018;BME280;43810;50.860;19.226;2022-11-02T05:02:51;99091.66;;;8.69;87.97
58018;BME280;43810;50.860;19.226;2022-11-02T05:05:17;99101.16;;;8.62;87.90
58018;BME280;43810;50.860;19.226;2022-11-02T05:07:43;99101.00;;;8.67;87.70
58018;BME280;43810;50.860;19.226;2022-11-02T05:10:09;99103.13;;;8.48;88.00
58018;BME280;43810;50.860;19.226;2022-11-02T05:12:35;99094.88;;;8.49;88.22
58018;BME280;43810;50.860;19.226;2022-11-02T05:15:01;99109.06;;;8.45;88.06
58018;BME280;43810;50.860;19.226;2022-11-02T05:17:29;99096.75;;;8.49;88.05
58018;BME280;43810;50.860;19.226;2022-11-02T05:19:55;99092.06;;;8.46;88.21
58018;BME280;43810;50.860;19.226;2022-11-02T05:22:20;99095.00;;;8.44;88.10
58018;BME280;43810;50.860;19.226;2022-11-02T05:24:46;99102.34;;;8.39;87.96
58018;BME280;43810;50.860;19.226;2022-11-02T05:27:12;99108.06;;;8.32;88.03
58018;BME280;43810;50.860;19.226;2022-11-02T05:29:38;99102.72;;;8.23;88.22
58018;BME280;43810;50.860;19.226;2022-11-02T05:32:04;99099.72;;;8.16;88.48
58018;BME280;43810;50.860;19.226;2022-11-02T05:34:30;99105.03;;;8.16;88.57
58018;BME280;43810;50.860;19.226;2022-11-02T05:36:56;99106.41;;;8.14;88.84
58018;BME280;43810;50.860;19.226;2022-11-02T05:39:22;99104.06;;;8.12;88.77
58018;BME280;43810;50.860;19.226;2022-11-02T05:41:47;99103.88;;;8.09;88.79
58018;BME280;43810;50.860;19.226;2022-11-02T05:44:13;99102.31;;;8.08;88.81
58018;BME280;43810;50.860;19.226;2022-11-02T05:46:39;99108.75;;;8.15;88.26
58018;BME280;43810;50.860;19.226;2022-11-02T05:49:04;99120.16;;;8.16;88.29
58018;BME280;43810;50.860;19.226;2022-11-02T05:51:30;99118.09;;;8.13;88.46
58018;BME280;43810;50.860;19.226;2022-11-02T05:53:56;99117.91;;;8.09;88.60
58018;BME280;43810;50.860;19.226;2022-11-02T05:56:21;99112.31;;;8.11;88.65
58018;BME280;43810;50.860;19.226;2022-11-02T05:58:47;99117.47;;;8.07;88.68
58018;BME280;43810;50.860;19.226;2022-11-02T06:01:13;99114.06;;;8.15;88.35
58018;BME280;43810;50.860;19.226;2022-11-02T06:03:39;99110.94;;;8.13;88.43
58018;BME280;43810;50.860;19.226;2022-11-02T06:06:06;99111.06;;;8.08;88.67
58018;BME280;43810;50.860;19.226;2022-11-02T06:08:37;99109.97;;;8.09;88.80
58018;BME280;43810;50.860;19.226;2022-11-02T06:11:08;99112.00;;;8.12;89.30
58018;BME280;43810;50.860;19.226;2022-11-02T06:13:35;99112.19;;;8.16;89.02
58018;BME280;43810;50.860;19.226;2022-11-02T06:16:02;99118.00;;;8.26;89.14
58018;BME280;43810;50.860;19.226;2022-11-02T06:18:28;99125.25;;;8.43;89.02
58018;BME280;43810;50.860;19.226;2022-11-02T06:20:59;99132.81;;;8.58;88.90
58018;BME280;43810;50.860;19.226;2022-11-02T06:23:26;99128.63;;;8.66;88.79
58018;BME280;43810;50.860;19.226;2022-11-02T06:25:53;99131.47;;;8.78;88.70
58018;BME280;43810;50.860;19.226;2022-11-02T06:28:20;99125.41;;;8.95;88.31
58018;BME280;43810;50.860;19.226;2022-11-02T06:30:46;99138.69;;;9.12;88.12
58018;BME280;43810;50.860;19.226;2022-11-02T06:33:12;99136.22;;;9.24;87.85
58018;BME280;43810;50.860;19.226;2022-11-02T06:35:37;99128.56;;;9.31;88.30
58018;BME280;43810;50.860;19.226;2022-11-02T06:38:03;99132.31;;;9.39;87.64
58018;BME280;43810;50.860;19.226;2022-11-02T06:40:29;99135.28;;;9.29;87.85
58018;BME280;43810;50.860;19.226;2022-11-02T06:42:55;99136.22;;;9.33;87.71
58018;BME280;43810;50.860;19.226;2022-11-02T06:45:22;99130.59;;;9.26;87.64
58018;BME280;43810;50.860;19.226;2022-11-02T06:47:48;99134.97;;;9.22;87.96
58018;BME280;43810;50.860;19.226;2022-11-02T06:50:17;99128.41;;;9.28;87.68
58018;BME280;43810;50.860;19.226;2022-11-02T06:52:44;99131.53;;;9.30;87.94
58018;BME280;43810;50.860;19.226;2022-11-02T06:55:11;99129.19;;;9.37;88.05
58018;BME280;43810;50.860;19.226;2022-11-02T06:57:38;99136.06;;;9.47;87.87
58018;BME280;43810;50.860;19.226;2022-11-02T07:00:05;99131.22;;;9.57;87.91
58018;BME280;43810;50.860;19.226;2022-11-02T07:02:32;99136.69;;;9.61;88.03
58018;BME280;43810;50.860;19.226;2022-11-02T07:04:58;99132.91;;;9.70;88.07
58018;BME280;43810;50.860;19.226;2022-11-02T07:07:24;99117.56;;;9.85;87.72
58018;BME280;43810;50.860;19.226;2022-11-02T07:09:50;99130.19;;;10.05;87.09
58018;BME280;43810;50.860;19.226;2022-11-02T07:12:16;99131.75;;;10.06;87.59
58018;BME280;43810;50.860;19.226;2022-11-02T07:14:42;99128.28;;;10.14;87.08
58018;BME280;43810;50.860;19.226;2022-11-02T07:17:07;99131.09;;;10.17;86.61
58018;BME280;43810;50.860;19.226;2022-11-02T07:19:33;99137.97;;;10.27;86.99
58018;BME280;43810;50.860;19.226;2022-11-02T07:21:59;99135.84;;;10.50;86.56
58018;BME280;43810;50.860;19.226;2022-11-02T07:24:25;99139.84;;;10.65;86.49
58018;BME280;43810;50.860;19.226;2022-11-02T07:26:51;99142.22;;;10.87;86.25
58018;BME280;43810;50.860;19.226;2022-11-02T07:29:17;99139.53;;;11.16;85.88
58018;BME280;43810;50.860;19.226;2022-11-02T07:31:43;99140.38;;;11.50;84.89
58018;BME280;43810;50.860;19.226;2022-11-02T07:34:10;99136.25;;;11.73;83.42
58018;BME280;43810;50.860;19.226;2022-11-02T07:36:37;99139.19;;;11.80;82.27
58018;BME280;43810;50.860;19.226;2022-11-02T07:39:02;99135.13;;;11.95;81.48
58018;BME280;43810;50.860;19.226;2022-11-02T07:41:28;99151.13;;;11.95;81.30
58018;BME280;43810;50.860;19.226;2022-11-02T07:43:54;99144.78;;;11.87;80.86
58018;BME280;43810;50.860;19.226;2022-11-02T07:46:20;99138.31;;;11.88;81.16
58018;BME280;43810;50.860;19.226;2022-11-02T07:48:46;99137.88;;;11.86;81.26
58018;BME280;43810;50.860;19.226;2022-11-02T07:51:12;99133.75;;;11.77;81.24
58018;BME280;43810;50.860;19.226;2022-11-02T07:53:38;99136.97;;;11.82;81.38
58018;BME280;43810;50.860;19.226;2022-11-02T07:56:05;99145.47;;;11.96;81.02
58018;BME280;43810;50.860;19.226;2022-11-02T07:58:31;99139.81;;;11.98;80.37
58018;BME280;43810;50.860;19.226;2022-11-02T08:00:58;99137.97;;;11.90;79.39
58018;BME280;43810;50.860;19.226;2022-11-02T08:03:25;99141.28;;;12.08;78.85
58018;BME280;43810;50.860;19.226;2022-11-02T08:05:51;99133.56;;;11.94;79.63
58018;BME280;43810;50.860;19.226;2022-11-02T08:08:21;99143.91;;;11.95;79.31
58018;BME280;43810;50.860;19.226;2022-11-02T08:10:50;99141.72;;;12.10;79.29
58018;BME280;43810;50.860;19.226;2022-11-02T08:13:21;99142.53;;;12.22;78.72
58018;BME280;43810;50.860;19.226;2022-11-02T08:15:48;99134.94;;;12.24;77.50
58018;BME280;43810;50.860;19.226;2022-11-02T08:18:20;99125.75;;;12.34;78.24
58018;BME280;43810;50.860;19.226;2022-11-02T08:20:47;99127.75;;;12.49;78.05
58018;BME280;43810;50.860;19.226;2022-11-02T08:23:14;99126.75;;;12.66;77.05
58018;BME280;43810;50.860;19.226;2022-11-02T08:25:41;99125.72;;;12.83;76.05
58018;BME280;43810;50.860;19.226;2022-11-02T08:28:12;99128.63;;;12.90;75.30
58018;BME280;43810;50.860;19.226;2022-11-02T08:30:38;99127.59;;;12.94;75.09
58018;BME280;43810;50.860;19.226;2022-11-02T08:33:06;99128.50;;;12.98;74.11
58018;BME280;43810;50.860;19.226;2022-11-02T08:35:33;99129.03;;;13.04;73.85
58018;BME280;43810;50.860;19.226;2022-11-02T08:38:02;99123.81;;;12.95;74.08
58018;BME280;43810;50.860;19.226;2022-11-02T08:40:28;99140.41;;;12.89;73.34
58018;BME280;43810;50.860;19.226;2022-11-02T08:43:03;99129.28;;;12.99;73.90
58018;BME280;43810;50.860;19.226;2022-11-02T08:45:29;99126.63;;;12.87;72.65
58018;BME280;43810;50.860;19.226;2022-11-02T08:47:56;99130.75;;;12.72;73.42
58018;BME280;43810;50.860;19.226;2022-11-02T08:50:23;99126.09;;;12.69;73.60
58018;BME280;43810;50.860;19.226;2022-11-02T08:52:49;99125.25;;;12.93;74.12
58018;BME280;43810;50.860;19.226;2022-11-02T08:55:15;99127.03;;;13.13;72.50
58018;BME280;43810;50.860;19.226;2022-11-02T08:57:52;99130.69;;;13.21;72.22
58018;BME280;43810;50.860;19.226;2022-11-02T09:00:20;99121.69;;;13.13;71.66
58018;BME280;43810;50.860;19.226;2022-11-02T09:03:06;99130.38;;;13.10;71.97
58018;BME280;43810;50.860;19.226;2022-11-02T09:05:46;99123.69;;;13.16;72.71
58018;BME280;43810;50.860;19.226;2022-11-02T09:08:16;99119.88;;;13.29;72.53
58018;BME280;43810;50.860;19.226;2022-11-02T09:10:44;99127.22;;;13.32;71.60
58018;BME280;43810;50.860;19.226;2022-11-02T09:13:13;99119.63;;;13.34;71.92
58018;BME280;43810;50.860;19.226;2022-11-02T09:15:39;99115.84;;;13.35;71.33
58018;BME280;43810;50.860;19.226;2022-11-02T09:18:06;99117.56;;;13.56;70.92
58018;BME280;43810;50.860;19.226;2022-11-02T09:20:33;99113.22;;;13.51;70.53
58018;BME280;43810;50.860;19.226;2022-11-02T09:22:59;99110.53;;;13.51;70.64
58018;BME280;43810;50.860;19.226;2022-11-02T09:25:25;99105.78;;;13.72;69.69
58018;BME280;43810;50.860;19.226;2022-11-02T09:27:55;99103.72;;;13.97;68.81
58018;BME280;43810;50.860;19.226;2022-11-02T09:30:23;99113.06;;;14.03;68.07
58018;BME280;43810;50.860;19.226;2022-11-02T09:33:01;99113.94;;;14.07;66.38
58018;BME280;43810;50.860;19.226;2022-11-02T09:35:30;99119.00;;;13.97;67.74
58018;BME280;43810;50.860;19.226;2022-11-02T09:37:57;99114.44;;;13.97;67.84
58018;BME280;43810;50.860;19.226;2022-11-02T09:40:25;99106.34;;;14.09;67.40
58018;BME280;43810;50.860;19.226;2022-11-02T09:45:35;99113.25;;;14.26;67.13
58018;BME280;43810;50.860;19.226;2022-11-02T09:48:09;99116.00;;;14.14;66.45
58018;BME280;43810;50.860;19.226;2022-11-02T09:50:44;99108.09;;;14.18;67.41
58018;BME280;43810;50.860;19.226;2022-11-02T09:53:18;99109.38;;;14.24;67.26
58018;BME280;43810;50.860;19.226;2022-11-02T09:55:56;99111.69;;;14.09;68.23
58018;BME280;43810;50.860;19.226;2022-11-02T09:58:33;99104.34;;;14.22;67.88
58018;BME280;43810;50.860;19.226;2022-11-02T10:01:08;99103.91;;;14.36;67.04
58018;BME280;43810;50.860;19.226;2022-11-02T10:03:57;99110.88;;;14.53;66.49
58018;BME280;43810;50.860;19.226;2022-11-02T10:06:27;99108.81;;;14.81;66.91
58018;BME280;43810;50.860;19.226;2022-11-02T10:09:12;99114.50;;;14.95;65.84
58018;BME280;43810;50.860;19.226;2022-11-02T10:14:23;99107.53;;;15.10;65.82
58018;BME280;43810;50.860;19.226;2022-11-02T10:17:11;99110.81;;;15.03;64.97
58018;BME280;43810;50.860;19.226;2022-11-02T10:19:42;99110.34;;;15.17;66.02
58018;BME280;43810;50.860;19.226;2022-11-02T10:22:12;99107.28;;;15.34;64.54
58018;BME280;43810;50.860;19.226;2022-11-02T10:24:44;99111.34;;;15.28;64.37
58018;BME280;43810;50.860;19.226;2022-11-02T10:27:25;99114.09;;;15.32;65.31
58018;BME280;43810;50.860;19.226;2022-11-02T10:32:29;99120.56;;;15.11;63.68
58018;BME280;43810;50.860;19.226;2022-11-02T10:34:57;99121.78;;;14.79;64.66
58018;BME280;43810;50.860;19.226;2022-11-02T10:43:48;99107.38;;;14.21;65.33
58018;BME280;43810;50.860;19.226;2022-11-02T10:51:10;99107.81;;;15.43;64.67
58018;BME280;43810;50.860;19.226;2022-11-02T10:53:40;99113.31;;;15.89;63.69
58018;BME280;43810;50.860;19.226;2022-11-02T10:56:20;99104.56;;;15.92;60.76
58018;BME280;43810;50.860;19.226;2022-11-02T11:01:35;99102.66;;;15.35;60.77
58018;BME280;43810;50.860;19.226;2022-11-02T11:04:03;99102.00;;;14.83;63.39
58018;BME280;43810;50.860;19.226;2022-11-02T11:06:36;99109.91;;;14.45;63.30
58018;BME280;43810;50.860;19.226;2022-11-02T11:09:18;99098.06;;;14.14;64.46
58018;BME280;43810;50.860;19.226;2022-11-02T11:14:20;99093.31;;;14.24;64.54
58018;BME280;43810;50.860;19.226;2022-11-02T11:16:55;99098.41;;;14.13;64.32
58018;BME280;43810;50.860;19.226;2022-11-02T11:21:52;99099.78;;;13.91;66.05
58018;BME280;43810;50.860;19.226;2022-11-02T11:24:32;99094.94;;;14.12;65.43
58018;BME280;43810;50.860;19.226;2022-11-02T11:27:13;99087.94;;;14.24;65.76
58018;BME280;43810;50.860;19.226;2022-11-02T11:30:09;99083.47;;;14.43;64.05
58018;BME280;43810;50.860;19.226;2022-11-02T11:32:32;99085.13;;;14.48;64.51
58018;BME280;43810;50.860;19.226;2022-11-02T11:35:02;99084.88;;;14.53;65.24
58018;BME280;43810;50.860;19.226;2022-11-02T11:37:29;99078.69;;;14.68;64.25
58018;BME280;43810;50.860;19.226;2022-11-02T11:42:27;99084.72;;;14.65;63.40
58018;BME280;43810;50.860;19.226;2022-11-02T11:45:04;99081.44;;;14.72;63.29
58018;BME280;43810;50.860;19.226;2022-11-02T11:47:36;99085.13;;;14.83;63.89
58018;BME280;43810;50.860;19.226;2022-11-02T11:50:06;99080.69;;;14.91;63.52
58018;BME280;43810;50.860;19.226;2022-11-02T11:52:35;99076.28;;;14.98;62.59
58018;BME280;43810;50.860;19.226;2022-11-02T11:55:22;99084.19;;;15.10;63.37
58018;BME280;43810;50.860;19.226;2022-11-02T12:03:27;99065.91;;;15.35;59.77
58018;BME280;43810;50.860;19.226;2022-11-02T12:06:03;99069.19;;;15.48;59.84
58018;BME280;43810;50.860;19.226;2022-11-02T12:09:02;99064.91;;;15.43;60.30
58018;BME280;43810;50.860;19.226;2022-11-02T12:17:19;99062.94;;;15.82;56.13
58018;BME280;43810;50.860;19.226;2022-11-02T12:22:49;99074.63;;;16.16;55.10
58018;BME280;43810;50.860;19.226;2022-11-02T12:25:51;99073.94;;;16.19;55.65
58018;BME280;43810;50.860;19.226;2022-11-02T12:28:30;99074.63;;;16.16;55.86
58018;BME280;43810;50.860;19.226;2022-11-02T12:31:15;99074.88;;;16.30;55.85
58018;BME280;43810;50.860;19.226;2022-11-02T12:34:22;99073.63;;;16.51;52.90
58018;BME280;43810;50.860;19.226;2022-11-02T12:47:39;99062.72;;;17.23;50.90
58018;BME280;43810;50.860;19.226;2022-11-02T12:50:54;99063.88;;;16.92;51.41
58018;BME280;43810;50.860;19.226;2022-11-02T12:53:53;99059.56;;;16.57;52.01
58018;BME280;43810;50.860;19.226;2022-11-02T12:55:59;99059.25;;;16.62;52.45
58018;BME280;43810;50.860;19.226;2022-11-02T12:58:33;99047.72;;;16.62;52.70
58018;BME280;43810;50.860;19.226;2022-11-02T13:01:01;99056.31;;;16.71;50.09
58018;BME280;43810;50.860;19.226;2022-11-02T13:03:54;99059.91;;;16.56;50.69
58018;BME280;43810;50.860;19.226;2022-11-02T13:06:31;99046.00;;;16.50;51.22
58018;BME280;43810;50.860;19.226;2022-11-02T13:09:06;99054.69;;;16.40;51.48
58018;BME280;43810;50.860;19.226;2022-11-02T13:11:39;99055.56;;;15.99;53.75
58018;BME280;43810;50.860;19.226;2022-11-02T13:14:11;99055.56;;;15.76;55.20
58018;BME280;43810;50.860;19.226;2022-11-02T13:19:46;99052.63;;;15.42;56.43
58018;BME280;43810;50.860;19.226;2022-11-02T13:22:14;99044.75;;;15.30;57.38
58018;BME280;43810;50.860;19.226;2022-11-02T13:24:46;99061.06;;;15.21;58.54
58018;BME280;43810;50.860;19.226;2022-11-02T13:27:26;99059.19;;;15.26;56.96
58018;BME280;43810;50.860;19.226;2022-11-02T13:29:56;99055.88;;;15.51;57.16
58018;BME280;43810;50.860;19.226;2022-11-02T13:32:35;99057.53;;;15.79;56.03
58018;BME280;43810;50.860;19.226;2022-11-02T13:35:06;99060.84;;;15.91;55.44
58018;BME280;43810;50.860;19.226;2022-11-02T13:37:42;99057.06;;;15.96;55.52
58018;BME280;43810;50.860;19.226;2022-11-02T13:40:21;99050.28;;;15.79;55.52
58018;BME280;43810;50.860;19.226;2022-11-02T13:46:01;99053.97;;;15.52;55.34
58018;BME280;43810;50.860;19.226;2022-11-02T13:49:25;99067.78;;;15.35;55.34
58018;BME280;43810;50.860;19.226;2022-11-02T13:54:02;99067.31;;;15.10;56.07
58018;BME280;43810;50.860;19.226;2022-11-02T13:56:29;99062.53;;;15.00;56.11
58018;BME280;43810;50.860;19.226;2022-11-02T13:59:04;99059.97;;;14.88;55.40
58018;BME280;43810;50.860;19.226;2022-11-02T14:01:35;99066.47;;;15.06;55.85
58018;BME280;43810;50.860;19.226;2022-11-02T14:04:09;99076.06;;;15.26;55.71
58018;BME280;43810;50.860;19.226;2022-11-02T14:09:21;99070.91;;;15.17;55.41
58018;BME280;43810;50.860;19.226;2022-11-02T14:11:48;99076.94;;;15.11;55.82
58018;BME280;43810;50.860;19.226;2022-11-02T14:14:24;99073.63;;;14.82;55.43
58018;BME280;43810;50.860;19.226;2022-11-02T14:19:20;99073.13;;;14.42;56.70
58018;BME280;43810;50.860;19.226;2022-11-02T14:37:47;99071.31;;;13.55;58.58
58018;BME280;43810;50.860;19.226;2022-11-02T14:43:41;99082.25;;;13.22;59.50
58018;BME280;43810;50.860;19.226;2022-11-02T14:49:02;99080.25;;;13.07;59.98
58018;BME280;43810;50.860;19.226;2022-11-02T14:51:31;99082.88;;;12.91;60.71
58018;BME280;43810;50.860;19.226;2022-11-02T14:54:00;99086.69;;;12.78;60.83
58018;BME280;43810;50.860;19.226;2022-11-02T14:56:46;99081.25;;;12.62;61.60
58018;BME280;43810;50.860;19.226;2022-11-02T14:59:22;99081.81;;;12.44;62.08
58018;BME280;43810;50.860;19.226;2022-11-02T15:04:56;99087.69;;;12.13;62.45
58018;BME280;43810;50.860;19.226;2022-11-02T15:07:32;99088.56;;;12.05;62.65
58018;BME280;43810;50.860;19.226;2022-11-02T15:12:41;99095.88;;;11.83;62.43
58018;BME280;43810;50.860;19.226;2022-11-02T15:15:34;99103.16;;;11.74;62.74
58018;BME280;43810;50.860;19.226;2022-11-02T15:23:46;99094.28;;;11.49;62.62
58018;BME280;43810;50.860;19.226;2022-11-02T15:26:23;99103.25;;;11.45;62.58